createdAt,value
2022-09-12T00:01:50.354Z,13.15
2022-09-12T00:04:23.706Z,13.15
2022-09-12T00:06:51.774Z,13.17
2022-09-12T00:09:20.725Z,13.22
2022-09-12T00:11:49.849Z,13.02
2022-09-12T00:14:29.129Z,13.13
2022-09-12T00:17:00.517Z,13.18
2022-09-12T00:19:33.746Z,13.02
2022-09-12T00:22:00.935Z,13.01
2022-09-12T00:24:29.077Z,13.12
2022-09-12T00:26:56.180Z,13.15
2022-09-12T00:29:23.308Z,13.28
2022-09-12T00:31:50.571Z,13.29
2022-09-12T00:34:17.679Z,13.24
2022-09-12T00:36:44.885Z,13.27
2022-09-12T00:39:18.157Z,13.31
2022-09-12T00:41:45.322Z,13.15
2022-09-12T00:44:21.393Z,13.16
2022-09-12T00:47:25.512Z,13.13
2022-09-12T00:50:09.401Z,13.25
2022-09-12T00:52:43.808Z,13.24
2022-09-12T00:55:35.750Z,13.26
2022-09-12T00:58:14.975Z,13.29
2022-09-12T01:00:42.363Z,13.29
2022-09-12T01:03:33.340Z,13.32
2022-09-12T01:06:18.533Z,13.24
2022-09-12T01:08:48.844Z,13.31
2022-09-12T01:11:18.648Z,13.33
2022-09-12T01:13:46.536Z,13.31
2022-09-12T01:16:20.370Z,13.33
2022-09-12T01:19:07.294Z,13.37
2022-09-12T01:22:27.797Z,13.33
2022-09-12T01:25:24.692Z,13.42
2022-09-12T01:28:03.693Z,13.44
2022-09-12T01:30:43.046Z,13.44
2022-09-12T01:33:57.057Z,13.46
2022-09-12T01:36:36.626Z,13.45
2022-09-12T01:39:52.734Z,13.50
2022-09-12T01:42:41.318Z,13.57
2022-09-12T01:45:38.601Z,13.60
2022-09-12T01:48:18.457Z,13.56
2022-09-12T01:51:00.653Z,13.52
2022-09-12T01:53:47.989Z,13.57
2022-09-12T01:56:22.753Z,13.55
2022-09-12T01:59:05.494Z,13.58
2022-09-12T02:02:10.147Z,13.51
2022-09-12T02:04:55.522Z,13.57
2022-09-12T02:07:32.931Z,13.50
2022-09-12T02:10:07.710Z,13.48
2022-09-12T02:12:59.044Z,13.42
2022-09-12T02:15:48.093Z,13.39
2022-09-12T02:18:27.506Z,13.40
2022-09-12T02:20:57.541Z,13.36
2022-09-12T02:23:32.446Z,13.33
2022-09-12T02:26:09.103Z,13.36
2022-09-12T02:28:42.531Z,13.31
2022-09-12T02:31:33.044Z,13.26
2022-09-12T02:34:39.468Z,13.29
2022-09-12T02:37:21.674Z,13.29
2022-09-12T02:40:14.586Z,13.25
2022-09-12T02:42:42.923Z,13.18
2022-09-12T02:45:23.515Z,13.27
2022-09-12T02:47:59.847Z,13.18
2022-09-12T02:50:28.404Z,13.18
2022-09-12T02:53:05.325Z,13.19
2022-09-12T02:55:40.961Z,13.11
2022-09-12T02:58:27.596Z,13.18
2022-09-12T03:01:21.632Z,13.13
2022-09-12T03:03:50.585Z,13.11
2022-09-12T03:06:44.052Z,13.19
2022-09-12T03:09:55.561Z,13.20
2022-09-12T03:13:01.272Z,13.16
2022-09-12T03:15:57.045Z,13.14
2022-09-12T03:18:42.409Z,13.17
2022-09-12T03:21:36.560Z,13.10
2022-09-12T03:24:13.653Z,13.13
2022-09-12T03:26:55.572Z,13.05
2022-09-12T03:29:28.529Z,13.13
2022-09-12T03:31:58.916Z,13.14
2022-09-12T03:34:27.910Z,13.13
2022-09-12T03:37:02.632Z,13.14
2022-09-12T03:39:35.847Z,13.08
2022-09-12T03:42:09.306Z,13.02
2022-09-12T03:44:42.209Z,12.97
2022-09-12T03:47:11.716Z,13.00
2022-09-12T03:49:38.726Z,13.00
2022-09-12T03:52:15.104Z,13.00
2022-09-12T03:54:48.045Z,12.93
2022-09-12T03:57:20.910Z,12.94
2022-09-12T03:59:50.964Z,12.94
2022-09-12T04:02:19.024Z,12.95
2022-09-12T04:04:49.163Z,12.97
2022-09-12T04:07:21.316Z,12.96
2022-09-12T04:09:59.392Z,12.83
2022-09-12T04:12:30.057Z,12.86
2022-09-12T04:14:59.155Z,12.92
2022-09-12T04:17:36.409Z,12.94
2022-09-12T04:20:03.591Z,12.92
2022-09-12T04:22:32.939Z,12.94
2022-09-12T04:25:02.276Z,12.94
2022-09-12T04:27:32.269Z,12.94
2022-09-12T04:30:00.732Z,12.93
2022-09-12T04:32:31.532Z,12.93
2022-09-12T04:34:58.725Z,12.93
2022-09-12T04:37:27.916Z,12.88
2022-09-12T04:40:06.523Z,12.87
2022-09-12T04:42:42.737Z,12.90
2022-09-12T04:45:16.999Z,12.90
2022-09-12T04:47:46.912Z,12.90
2022-09-12T04:50:15.675Z,12.93
2022-09-12T04:52:43.841Z,12.90
2022-09-12T04:55:10.959Z,12.87
2022-09-12T04:57:38.021Z,12.86
2022-09-12T05:00:07.402Z,12.94
2022-09-12T05:02:35.163Z,12.90
2022-09-12T05:05:10.693Z,12.97
2022-09-12T05:07:37.944Z,12.99
2022-09-12T05:10:06.371Z,13.05
2022-09-12T05:12:45.625Z,13.07
2022-09-12T05:15:18.439Z,13.04
2022-09-12T05:17:45.476Z,13.09
2022-09-12T05:20:14.736Z,13.07
2022-09-12T05:22:45.685Z,13.02
2022-09-12T05:25:12.925Z,13.03
2022-09-12T05:27:53.574Z,13.04
2022-09-12T05:30:31.743Z,13.07
2022-09-12T05:33:04.857Z,13.12
2022-09-12T05:35:31.886Z,13.19
2022-09-12T05:38:06.459Z,13.17
2022-09-12T05:40:35.025Z,13.21
2022-09-12T05:43:02.059Z,13.19
2022-09-12T05:45:35.226Z,13.24
2022-09-12T05:48:03.375Z,13.17
2022-09-12T05:50:31.391Z,13.23
2022-09-12T05:53:04.720Z,13.29
2022-09-12T05:55:31.930Z,13.38
2022-09-12T05:58:04.905Z,13.41
2022-09-12T06:00:33.616Z,13.48
2022-09-12T06:03:02.998Z,13.43
2022-09-12T06:05:39.723Z,13.58
2022-09-12T06:08:09.964Z,13.62
2022-09-12T06:10:47.209Z,13.67
2022-09-12T06:13:14.353Z,13.73
2022-09-12T06:15:42.340Z,13.74
2022-09-12T06:18:09.390Z,13.90
2022-09-12T06:20:37.508Z,13.93
2022-09-12T06:23:04.554Z,13.98
2022-09-12T06:25:32.760Z,13.99
2022-09-12T06:28:01.430Z,14.05
2022-09-12T06:30:30.652Z,14.14
2022-09-12T06:33:01.594Z,14.18
2022-09-12T06:35:28.801Z,14.27
2022-09-12T06:37:57.926Z,14.26
2022-09-12T06:40:25.296Z,14.31
2022-09-12T06:42:53.597Z,14.39
2022-09-12T06:45:21.847Z,14.63
2022-09-12T06:47:53.856Z,14.89
2022-09-12T06:50:22.376Z,14.96
2022-09-12T06:52:51.567Z,14.89
2022-09-12T06:55:27.698Z,15.05
2022-09-12T06:57:55.928Z,14.88
2022-09-12T07:00:23.981Z,14.95
2022-09-12T07:02:54.851Z,14.97
2022-09-12T07:05:27.117Z,15.20
2022-09-12T07:07:54.179Z,15.31
2022-09-12T07:10:22.420Z,15.38
2022-09-12T07:12:49.650Z,15.36
2022-09-12T07:15:21.742Z,15.45
2022-09-12T07:17:50.722Z,15.42
2022-09-12T07:20:18.941Z,15.45
2022-09-12T07:22:52.662Z,15.32
2022-09-12T07:25:20.526Z,15.29
2022-09-12T07:27:51.090Z,15.30
2022-09-12T07:30:18.490Z,15.55
2022-09-12T07:32:47.557Z,15.72
2022-09-12T07:35:14.804Z,15.76
2022-09-12T07:37:41.870Z,15.96
2022-09-12T07:40:09.167Z,16.20
2022-09-12T07:42:36.343Z,16.34
2022-09-12T07:45:04.717Z,16.20
2022-09-12T07:47:32.730Z,16.17
2022-09-12T07:50:00.879Z,16.29
2022-09-12T07:52:28.855Z,16.48
2022-09-12T07:54:56.964Z,16.77
2022-09-12T07:57:28.003Z,16.82
2022-09-12T07:59:56.020Z,17.02
2022-09-12T08:02:27.133Z,17.03
2022-09-12T08:04:58.164Z,16.75
2022-09-12T08:07:25.428Z,16.34
2022-09-12T08:09:54.519Z,16.23
2022-09-12T08:12:22.742Z,16.12
2022-09-12T08:14:50.836Z,16.20
2022-09-12T08:17:17.999Z,16.45
2022-09-12T08:19:46.399Z,16.61
2022-09-12T08:22:14.799Z,16.68
2022-09-12T08:24:44.524Z,16.83
2022-09-12T08:27:11.782Z,16.89
2022-09-12T08:29:41.276Z,16.98
2022-09-12T08:32:09.405Z,17.04
2022-09-12T08:34:37.386Z,16.96
2022-09-12T08:37:05.017Z,16.89
2022-09-12T08:39:33.524Z,16.86
2022-09-12T08:42:03.481Z,16.94
2022-09-12T08:45:07.241Z,17.28
2022-09-12T08:47:42.721Z,17.65
2022-09-12T08:50:12.538Z,17.94
2022-09-12T08:52:53.544Z,18.14
2022-09-12T08:55:34.614Z,17.61
2022-09-12T08:58:11.930Z,17.32
2022-09-12T09:01:03.488Z,17.20
2022-09-12T09:04:12.199Z,17.58
2022-09-12T09:07:00.638Z,18.16
2022-09-12T09:09:37.542Z,18.46
2022-09-12T09:12:19.822Z,18.59
2022-09-12T09:15:25.222Z,18.52
2022-09-12T09:18:09.848Z,18.01
2022-09-12T09:20:44.301Z,17.72
2022-09-12T09:23:27.185Z,17.98
2022-09-12T09:26:15.184Z,18.14
2022-09-12T09:29:16.935Z,18.22
2022-09-12T09:31:49.956Z,18.32
2022-09-12T09:34:30.391Z,18.29
2022-09-12T09:37:14.272Z,17.84
2022-09-12T09:40:15.977Z,17.85
2022-09-12T09:43:11.238Z,17.89
2022-09-12T09:45:47.299Z,17.94
2022-09-12T09:48:23.326Z,17.89
2022-09-12T09:51:00.522Z,18.02
2022-09-12T09:53:47.166Z,18.04
2022-09-12T09:56:36.959Z,17.92
2022-09-12T09:59:26.863Z,17.84
2022-09-12T10:02:24.388Z,17.82
2022-09-12T10:04:58.020Z,17.80
2022-09-12T10:07:26.845Z,17.85
2022-09-12T10:10:18.006Z,18.05
2022-09-12T10:12:45.690Z,18.39
2022-09-12T10:15:22.804Z,18.99
2022-09-12T10:17:51.538Z,19.14
2022-09-12T10:20:43.142Z,19.55
2022-09-12T10:23:18.929Z,19.80
2022-09-12T10:26:01.797Z,19.85
2022-09-12T10:28:42.287Z,19.45
2022-09-12T10:31:15.832Z,19.16
2022-09-12T10:33:53.110Z,18.90
2022-09-12T10:36:21.334Z,18.67
2022-09-12T10:38:59.418Z,18.79
2022-09-12T10:41:37.656Z,18.89
2022-09-12T10:44:30.009Z,18.98
2022-09-12T10:46:58.789Z,19.25
2022-09-12T10:49:38.248Z,19.49
2022-09-12T10:52:27.620Z,19.71
2022-09-12T10:54:54.969Z,19.80
2022-09-12T10:57:33.371Z,19.85
2022-09-12T11:00:17.635Z,19.92
2022-09-12T11:03:15.626Z,20.46
2022-09-12T11:06:00.128Z,21.14
2022-09-12T11:08:56.663Z,21.47
2022-09-12T11:11:27.392Z,21.52
2022-09-12T11:14:13.496Z,22.20
2022-09-12T11:16:53.488Z,22.64
2022-09-12T11:19:55.166Z,23.12
2022-09-12T11:22:41.235Z,24.10
2022-09-12T11:25:12.297Z,24.04
2022-09-12T11:27:47.292Z,23.23
2022-09-12T11:30:19.519Z,23.09
2022-09-12T11:33:10.434Z,23.13
2022-09-12T11:35:51.859Z,23.09
2022-09-12T11:39:11.826Z,22.06
2022-09-12T11:41:42.811Z,22.51
2022-09-12T11:44:38.764Z,23.25
2022-09-12T11:47:16.183Z,24.06
2022-09-12T11:49:54.656Z,24.58
2022-09-12T11:52:24.199Z,25.09
2022-09-12T11:54:54.191Z,25.71
2022-09-12T11:57:31.177Z,25.72
2022-09-12T12:00:10.426Z,25.98
2022-09-12T12:02:41.798Z,24.27
2022-09-12T12:05:29.062Z,24.58
2022-09-12T12:08:18.376Z,24.85
2022-09-12T12:10:53.485Z,24.81
2022-09-12T12:13:31.330Z,25.26
2022-09-12T12:16:04.217Z,25.01
2022-09-12T12:18:33.812Z,24.46
2022-09-12T12:21:22.533Z,23.55
2022-09-12T12:24:08.621Z,22.80
2022-09-12T12:26:41.837Z,22.17
2022-09-12T12:29:21.650Z,21.64
2022-09-12T12:32:06.785Z,21.20
2022-09-12T12:34:40.407Z,20.98
2022-09-12T12:37:19.499Z,20.68
2022-09-12T12:39:53.088Z,20.49
2022-09-12T12:42:45.273Z,20.41
2022-09-12T12:45:19.587Z,20.39
2022-09-12T12:47:49.923Z,20.37
2022-09-12T12:50:19.601Z,20.47
2022-09-12T12:53:02.005Z,20.53
2022-09-12T12:55:35.390Z,20.63
2022-09-12T12:58:24.027Z,20.71
2022-09-12T13:01:23.194Z,20.69
2022-09-12T13:04:06.089Z,20.53
2022-09-12T13:06:42.571Z,20.51
2022-09-12T13:09:27.337Z,20.55
2022-09-12T13:12:11.048Z,20.58
2022-09-12T13:15:15.977Z,20.63
2022-09-12T13:17:44.564Z,20.67
2022-09-12T13:20:30.543Z,20.77
2022-09-12T13:22:59.341Z,20.73
2022-09-12T13:25:31.230Z,20.78
2022-09-12T13:28:13.379Z,21.01
2022-09-12T13:30:43.451Z,21.23
2022-09-12T13:33:21.203Z,21.40
2022-09-12T13:36:00.042Z,21.57
2022-09-12T13:38:34.401Z,21.56
2022-09-12T13:41:37.595Z,21.72
2022-09-12T13:44:19.580Z,21.91
2022-09-12T13:46:47.936Z,22.10
2022-09-12T13:49:38.177Z,22.14
2022-09-12T13:52:09.685Z,21.92
2022-09-12T13:54:39.261Z,22.03
2022-09-12T13:57:06.706Z,22.20
2022-09-12T13:59:42.972Z,22.41
2022-09-12T14:02:20.291Z,22.55
2022-09-12T14:05:11.693Z,22.58
2022-09-12T14:07:56.454Z,22.51
2022-09-12T14:10:40.795Z,22.63
2022-09-12T14:13:20.762Z,22.60
2022-09-12T14:15:50.577Z,22.60
2022-09-12T14:18:36.665Z,22.93
2022-09-12T14:21:27.439Z,23.34
2022-09-12T14:23:58.970Z,23.42
2022-09-12T14:26:57.331Z,23.65
2022-09-12T14:29:26.849Z,23.33
2022-09-12T14:32:03.977Z,23.09
2022-09-12T14:34:40.994Z,22.56
2022-09-12T14:37:17.664Z,22.02
2022-09-12T14:39:52.652Z,21.76
2022-09-12T14:42:23.502Z,21.44
2022-09-12T14:44:59.020Z,21.42
2022-09-12T14:47:40.464Z,21.16
2022-09-12T14:50:19.392Z,21.15
2022-09-12T14:53:03.923Z,21.07
2022-09-12T14:55:34.286Z,20.83
2022-09-12T14:58:23.140Z,20.70
2022-09-12T15:00:58.113Z,20.62
2022-09-12T15:03:37.419Z,20.46
2022-09-12T15:06:08.282Z,20.35
2022-09-12T15:08:35.420Z,20.48
2022-09-12T15:11:07.235Z,20.61
2022-09-12T15:13:41.840Z,20.43
2022-09-12T15:16:12.312Z,20.38
2022-09-12T15:18:39.575Z,20.38
2022-09-12T15:21:14.163Z,20.44
2022-09-12T15:23:52.508Z,20.38
2022-09-12T15:26:30.742Z,20.35
2022-09-12T15:28:58.415Z,20.41
2022-09-12T15:31:26.589Z,20.32
2022-09-12T15:33:55.287Z,20.38
2022-09-12T15:36:24.031Z,20.43
2022-09-12T15:38:53.023Z,20.50
2022-09-12T15:41:30.773Z,20.57
2022-09-12T15:43:58.289Z,20.80
2022-09-12T15:46:25.334Z,21.04
2022-09-12T15:48:52.516Z,21.22
2022-09-12T15:51:25.559Z,21.59
2022-09-12T15:53:53.855Z,22.07
2022-09-12T15:56:23.416Z,22.72
2022-09-12T15:58:59.254Z,23.16
2022-09-12T16:01:29.244Z,23.41
2022-09-12T16:03:57.845Z,23.45
2022-09-12T16:06:36.310Z,23.20
2022-09-12T16:09:06.329Z,22.81
2022-09-12T16:11:40.310Z,22.50
2022-09-12T16:14:09.080Z,22.23
2022-09-12T16:16:38.248Z,22.04
2022-09-12T16:19:06.819Z,21.88
2022-09-12T16:21:36.928Z,21.74
2022-09-12T16:24:05.608Z,21.81
2022-09-12T16:26:34.701Z,21.94
2022-09-12T16:29:03.925Z,22.05
2022-09-12T16:31:31.406Z,22.07
2022-09-12T16:34:01.114Z,21.79
2022-09-12T16:36:28.256Z,21.47
2022-09-12T16:39:02.130Z,21.13
2022-09-12T16:41:30.174Z,20.82
2022-09-12T16:43:59.303Z,20.48
2022-09-12T16:46:31.304Z,20.09
2022-09-12T16:49:00.119Z,19.70
2022-09-12T16:51:37.311Z,19.42
2022-09-12T16:54:05.535Z,19.24
2022-09-12T16:56:33.497Z,18.98
2022-09-12T16:59:01.563Z,18.71
2022-09-12T17:01:29.641Z,18.49
2022-09-12T17:03:59.266Z,18.05
2022-09-12T17:06:49.677Z,17.84
2022-09-12T17:09:18.892Z,17.87
2022-09-12T17:11:48.105Z,17.74
2022-09-12T17:14:15.120Z,17.61
2022-09-12T17:16:51.362Z,17.54
2022-09-12T17:19:29.981Z,17.43
2022-09-12T17:21:59.163Z,17.37
2022-09-12T17:24:27.284Z,17.10
2022-09-12T17:26:57.546Z,16.79
2022-09-12T17:29:28.867Z,16.62
2022-09-12T17:32:05.216Z,16.50
2022-09-12T17:34:32.285Z,16.37
2022-09-12T17:36:59.231Z,16.30
2022-09-12T17:39:36.530Z,15.95
2022-09-12T17:42:06.828Z,15.88
2022-09-12T17:44:36.230Z,15.60
2022-09-12T17:47:15.328Z,15.53
2022-09-12T17:49:45.233Z,15.45
2022-09-12T17:52:12.727Z,15.35
2022-09-12T17:54:40.765Z,15.36
2022-09-12T17:57:10.113Z,15.24
2022-09-12T17:59:46.389Z,15.32
2022-09-12T18:02:14.609Z,15.11
2022-09-12T18:04:48.856Z,14.74
2022-09-12T18:07:19.503Z,14.67
2022-09-12T18:09:52.281Z,14.08
2022-09-12T18:12:20.665Z,14.32
2022-09-12T18:14:54.914Z,14.34
2022-09-12T18:17:22.237Z,14.19
2022-09-12T18:19:53.827Z,14.15
2022-09-12T18:22:21.521Z,13.87
2022-09-12T18:25:02.739Z,13.90
2022-09-12T18:27:31.255Z,13.59
2022-09-12T18:30:19.590Z,13.38
2022-09-12T18:32:51.545Z,13.59
2022-09-12T18:35:19.098Z,13.61
2022-09-12T18:37:51.737Z,13.60
2022-09-12T18:40:24.215Z,13.59
2022-09-12T18:42:52.408Z,13.47
2022-09-12T18:45:19.665Z,13.24
2022-09-12T18:47:54.118Z,13.29
2022-09-12T18:50:25.058Z,13.41
2022-09-12T18:52:59.756Z,13.45
2022-09-12T18:55:28.326Z,13.42
2022-09-12T18:57:57.867Z,13.35
2022-09-12T19:00:31.495Z,13.46
2022-09-12T19:03:12.871Z,13.49
2022-09-12T19:05:40.288Z,13.25
2022-09-12T19:08:08.942Z,12.95
2022-09-12T19:10:37.257Z,13.00
2022-09-12T19:13:12.685Z,13.00
2022-09-12T19:15:46.988Z,12.93
2022-09-12T19:18:17.417Z,12.80
2022-09-12T19:20:50.613Z,12.91
2022-09-12T19:23:17.894Z,12.61
2022-09-12T19:25:55.369Z,12.44
2022-09-12T19:28:22.716Z,12.34
2022-09-12T19:30:50.073Z,12.30
2022-09-12T19:33:24.868Z,12.13
2022-09-12T19:35:53.070Z,12.00
2022-09-12T19:38:20.379Z,12.13
2022-09-12T19:41:15.128Z,12.17
2022-09-12T19:43:45.694Z,12.20
2022-09-12T19:46:21.637Z,12.35
2022-09-12T19:48:58.283Z,12.34
2022-09-12T19:51:25.846Z,12.16
2022-09-12T19:53:53.671Z,12.14
2022-09-12T19:56:24.891Z,12.03
2022-09-12T19:58:56.345Z,12.05
2022-09-12T20:01:28.601Z,12.02
2022-09-12T20:03:58.543Z,11.76
2022-09-12T20:06:33.824Z,11.51
2022-09-12T20:09:09.890Z,11.74
2022-09-12T20:11:43.915Z,11.70
2022-09-12T20:14:13.779Z,11.75
2022-09-12T20:16:41.801Z,11.69
2022-09-12T20:19:10.858Z,11.44
2022-09-12T20:21:53.302Z,11.12
2022-09-12T20:24:25.852Z,11.08
2022-09-12T20:26:57.780Z,11.12
2022-09-12T20:29:24.991Z,11.05
2022-09-12T20:31:52.227Z,11.11
2022-09-12T20:34:25.142Z,11.05
2022-09-12T20:36:52.321Z,11.11
2022-09-12T20:39:23.680Z,11.51
2022-09-12T20:41:51.919Z,11.57
2022-09-12T20:44:20.458Z,11.61
2022-09-12T20:46:51.749Z,11.48
2022-09-12T20:49:18.982Z,11.51
2022-09-12T20:55:36.355Z,10.81
2022-09-12T20:58:06.327Z,10.71
2022-09-12T21:00:34.472Z,10.55
2022-09-12T21:03:01.678Z,10.59
2022-09-12T21:05:48.931Z,10.40
2022-09-12T21:08:51.358Z,10.44
2022-09-12T21:11:27.218Z,10.37
2022-09-12T21:14:03.667Z,10.64
2022-09-12T21:16:43.983Z,10.66
2022-09-12T21:19:14.186Z,10.45
2022-09-12T21:21:41.286Z,10.53
2022-09-12T21:24:40.003Z,10.52
2022-09-12T21:27:21.051Z,10.47
2022-09-12T21:29:55.709Z,10.42
2022-09-12T21:32:35.098Z,10.32
2022-09-12T21:35:09.334Z,10.36
2022-09-12T21:37:36.614Z,10.34
2022-09-12T21:40:10.293Z,10.53
2022-09-12T21:42:50.747Z,10.74
2022-09-12T21:45:24.067Z,10.93
2022-09-12T21:47:53.296Z,11.00
2022-09-12T21:50:49.750Z,10.81
2022-09-12T21:53:17.914Z,10.83
2022-09-12T21:56:07.251Z,10.76
2022-09-12T21:58:53.374Z,10.55
2022-09-12T22:01:22.508Z,10.48
2022-09-12T22:03:57.588Z,10.40
2022-09-12T22:06:28.537Z,10.39
2022-09-12T22:09:01.730Z,10.34
2022-09-12T22:11:33.276Z,10.25
2022-09-12T22:14:00.238Z,10.25
2022-09-12T22:16:59.626Z,10.33
2022-09-12T22:19:27.042Z,10.28
2022-09-12T22:22:13.929Z,10.31
2022-09-12T22:24:43.032Z,10.31
2022-09-12T22:27:10.257Z,10.28
2022-09-12T22:29:39.195Z,10.23
2022-09-12T22:32:16.585Z,10.13
2022-09-12T22:34:43.707Z,10.08
2022-09-12T22:37:13.398Z,10.09
2022-09-12T22:39:40.882Z,10.24
2022-09-12T22:42:09.991Z,10.27
2022-09-12T22:44:37.096Z,10.22
2022-09-12T22:47:04.250Z,10.12
2022-09-12T22:49:31.390Z,10.04
2022-09-12T22:52:04.335Z,10.02
2022-09-12T22:54:33.614Z,10.12
2022-09-12T22:57:02.076Z,10.05
2022-09-12T22:59:35.216Z,10.14
2022-09-12T23:02:03.851Z,9.93
2022-09-12T23:05:03.379Z,10.13
2022-09-12T23:07:42.859Z,10.09
2022-09-12T23:10:29.687Z,10.04
2022-09-12T23:13:02.862Z,9.98
2022-09-12T23:15:47.150Z,9.77
2022-09-12T23:18:15.193Z,9.75
2022-09-12T23:20:43.169Z,9.94
2022-09-12T23:23:12.201Z,9.79
2022-09-12T23:25:47.250Z,9.76
2022-09-12T23:28:18.317Z,9.91
2022-09-12T23:31:13.610Z,10.14
2022-09-12T23:34:06.145Z,9.99
2022-09-12T23:36:34.692Z,9.97
2022-09-12T23:39:07.969Z,9.91
2022-09-12T23:41:59.624Z,9.70
2022-09-12T23:44:37.639Z,9.71
2022-09-12T23:47:05.722Z,9.60
2022-09-12T23:49:56.277Z,9.66
2022-09-12T23:52:39.651Z,9.68
2022-09-12T23:55:08.211Z,9.72
2022-09-12T23:57:42.541Z,9.61
